sensor_id;sensor_type;location;lat;lon;timestamp;temperature;humidity
39525;DHT22;25203;50.754;6.978;2023-03-23T00:00:40;13.30;99.90
39525;DHT22;25203;50.754;6.978;2023-03-23T00:02:41;13.30;99.90
39525;DHT22;25203;50.754;6.978;2023-03-23T00:04:41;13.30;99.90
39525;DHT22;25203;50.754;6.978;2023-03-23T00:06:43;13.30;99.90
39525;DHT22;25203;50.754;6.978;2023-03-23T00:08:47;13.20;99.90
39525;DHT22;25203;50.754;6.978;2023-03-23T00:10:50;13.30;99.90
39525;DHT22;25203;50.754;6.978;2023-03-23T00:12:57;13.20;99.90
39525;DHT22;25203;50.754;6.978;2023-03-23T00:14:58;13.20;99.90
39525;DHT22;25203;50.754;6.978;2023-03-23T00:16:59;13.30;99.90
39525;DHT22;25203;50.754;6.978;2023-03-23T00:19:01;13.30;99.90
39525;DHT22;25203;50.754;6.978;2023-03-23T00:21:02;13.30;99.90
39525;DHT22;25203;50.754;6.978;2023-03-23T00:23:04;13.30;99.90
39525;DHT22;25203;50.754;6.978;2023-03-23T00:25:05;13.20;99.90
39525;DHT22;25203;50.754;6.978;2023-03-23T00:27:06;13.20;99.90
39525;DHT22;25203;50.754;6.978;2023-03-23T00:29:19;13.20;99.90
39525;DHT22;25203;50.754;6.978;2023-03-23T00:31:21;13.20;99.90
39525;DHT22;25203;50.754;6.978;2023-03-23T00:33:23;13.20;99.90
39525;DHT22;25203;50.754;6.978;2023-03-23T00:35:24;13.10;99.90
39525;DHT22;25203;50.754;6.978;2023-03-23T00:37:26;13.10;99.90
39525;DHT22;25203;50.754;6.978;2023-03-23T00:39:27;13.10;99.90
39525;DHT22;25203;50.754;6.978;2023-03-23T00:41:29;13.20;99.90
39525;DHT22;25203;50.754;6.978;2023-03-23T00:43:30;13.10;99.90
39525;DHT22;25203;50.754;6.978;2023-03-23T00:45:31;13.10;99.90
39525;DHT22;25203;50.754;6.978;2023-03-23T00:47:32;13.10;99.90
39525;DHT22;25203;50.754;6.978;2023-03-23T00:49:37;13.10;99.90
39525;DHT22;25203;50.754;6.978;2023-03-23T00:51:39;13.10;99.90
39525;DHT22;25203;50.754;6.978;2023-03-23T00:53:40;13.10;99.90
39525;DHT22;25203;50.754;6.978;2023-03-23T00:55:44;13.10;99.90
39525;DHT22;25203;50.754;6.978;2023-03-23T00:57:45;13.10;99.90
39525;DHT22;25203;50.754;6.978;2023-03-23T00:59:46;13.10;99.90
39525;DHT22;25203;50.754;6.978;2023-03-23T01:01:47;13.10;99.90
39525;DHT22;25203;50.754;6.978;2023-03-23T01:03:47;13.00;99.90
39525;DHT22;25203;50.754;6.978;2023-03-23T01:05:49;13.00;99.90
39525;DHT22;25203;50.754;6.978;2023-03-23T01:07:52;13.00;99.90
39525;DHT22;25203;50.754;6.978;2023-03-23T01:09:52;13.00;99.90
39525;DHT22;25203;50.754;6.978;2023-03-23T01:11:53;13.00;99.90
39525;DHT22;25203;50.754;6.978;2023-03-23T01:13:56;13.10;99.90
39525;DHT22;25203;50.754;6.978;2023-03-23T01:15:56;13.10;99.90
39525;DHT22;25203;50.754;6.978;2023-03-23T01:17:57;13.10;99.90
39525;DHT22;25203;50.754;6.978;2023-03-23T01:19:58;13.10;99.90
39525;DHT22;25203;50.754;6.978;2023-03-23T01:21:58;13.10;99.90
39525;DHT22;25203;50.754;6.978;2023-03-23T01:23:59;13.10;99.90
39525;DHT22;25203;50.754;6.978;2023-03-23T01:26:14;13.10;99.90
39525;DHT22;25203;50.754;6.978;2023-03-23T01:28:15;13.00;99.90
39525;DHT22;25203;50.754;6.978;2023-03-23T01:30:16;13.00;99.90
39525;DHT22;25203;50.754;6.978;2023-03-23T01:32:17;13.00;99.90
39525;DHT22;25203;50.754;6.978;2023-03-23T01:34:17;13.00;99.90
39525;DHT22;25203;50.754;6.978;2023-03-23T01:36:20;13.00;99.90
39525;DHT22;25203;50.754;6.978;2023-03-23T01:38:21;13.00;99.90
39525;DHT22;25203;50.754;6.978;2023-03-23T01:40:22;13.00;99.90
39525;DHT22;25203;50.754;6.978;2023-03-23T01:42:30;12.90;99.90
39525;DHT22;25203;50.754;6.978;2023-03-23T01:46:33;13.00;99.90
39525;DHT22;25203;50.754;6.978;2023-03-23T01:48:36;13.00;99.90
39525;DHT22;25203;50.754;6.978;2023-03-23T01:51:06;13.00;99.90
39525;DHT22;25203;50.754;6.978;2023-03-23T01:53:08;13.00;99.90
39525;DHT22;25203;50.754;6.978;2023-03-23T01:55:10;12.90;99.90
39525;DHT22;25203;50.754;6.978;2023-03-23T02:09:24;12.60;99.90
39525;DHT22;25203;50.754;6.978;2023-03-23T02:11:25;12.60;99.90
39525;DHT22;25203;50.754;6.978;2023-03-23T02:13:27;12.60;99.90
39525;DHT22;25203;50.754;6.978;2023-03-23T02:15:36;12.50;99.90
39525;DHT22;25203;50.754;6.978;2023-03-23T02:27:12;12.50;99.90
39525;DHT22;25203;50.754;6.978;2023-03-23T02:34:42;12.50;99.90
39525;DHT22;25203;50.754;6.978;2023-03-23T02:37:01;12.50;99.90
39525;DHT22;25203;50.754;6.978;2023-03-23T02:39:12;12.40;99.90
39525;DHT22;25203;50.754;6.978;2023-03-23T02:41:14;12.40;99.90
39525;DHT22;25203;50.754;6.978;2023-03-23T02:43:18;12.30;99.90
39525;DHT22;25203;50.754;6.978;2023-03-23T02:45:21;12.30;99.90
39525;DHT22;25203;50.754;6.978;2023-03-23T02:47:25;12.30;99.90
39525;DHT22;25203;50.754;6.978;2023-03-23T02:49:29;12.30;99.90
39525;DHT22;25203;50.754;6.978;2023-03-23T02:51:34;12.20;99.90
39525;DHT22;25203;50.754;6.978;2023-03-23T02:53:38;12.20;99.90
39525;DHT22;25203;50.754;6.978;2023-03-23T02:55:41;12.20;99.90
39525;DHT22;25203;50.754;6.978;2023-03-23T02:57:43;12.10;99.90
39525;DHT22;25203;50.754;6.978;2023-03-23T02:59:45;12.10;99.90
39525;DHT22;25203;50.754;6.978;2023-03-23T03:01:51;12.10;99.90
39525;DHT22;25203;50.754;6.978;2023-03-23T03:03:54;12.10;99.90
39525;DHT22;25203;50.754;6.978;2023-03-23T03:10:33;12.20;99.90
39525;DHT22;25203;50.754;6.978;2023-03-23T03:12:55;12.10;99.90
39525;DHT22;25203;50.754;6.978;2023-03-23T03:17:36;12.10;99.90
39525;DHT22;25203;50.754;6.978;2023-03-23T03:19:46;12.00;99.90
39525;DHT22;25203;50.754;6.978;2023-03-23T03:21:49;12.00;99.90
39525;DHT22;25203;50.754;6.978;2023-03-23T03:23:53;11.90;99.90
39525;DHT22;25203;50.754;6.978;2023-03-23T03:25:55;11.80;99.90
39525;DHT22;25203;50.754;6.978;2023-03-23T03:27:57;11.80;99.90
39525;DHT22;25203;50.754;6.978;2023-03-23T03:30:01;11.80;99.90
39525;DHT22;25203;50.754;6.978;2023-03-23T03:32:05;11.80;99.90
39525;DHT22;25203;50.754;6.978;2023-03-23T03:34:07;11.80;99.90
39525;DHT22;25203;50.754;6.978;2023-03-23T03:36:15;11.70;99.90
39525;DHT22;25203;50.754;6.978;2023-03-23T03:38:16;11.70;99.90
39525;DHT22;25203;50.754;6.978;2023-03-23T03:40:19;11.70;99.90
39525;DHT22;25203;50.754;6.978;2023-03-23T03:42:20;11.70;99.90
39525;DHT22;25203;50.754;6.978;2023-03-23T03:44:21;11.70;99.90
39525;DHT22;25203;50.754;6.978;2023-03-23T03:46:22;11.70;99.90
39525;DHT22;25203;50.754;6.978;2023-03-23T03:48:27;11.70;99.90
39525;DHT22;25203;50.754;6.978;2023-03-23T03:50:28;11.70;99.90
39525;DHT22;25203;50.754;6.978;2023-03-23T03:52:28;11.70;99.90
39525;DHT22;25203;50.754;6.978;2023-03-23T03:54:29;11.70;99.90
39525;DHT22;25203;50.754;6.978;2023-03-23T03:56:29;11.70;99.90
39525;DHT22;25203;50.754;6.978;2023-03-23T03:58:31;11.70;99.90
39525;DHT22;25203;50.754;6.978;2023-03-23T04:00:32;11.80;99.90
39525;DHT22;25203;50.754;6.978;2023-03-23T04:02:32;11.80;99.90
39525;DHT22;25203;50.754;6.978;2023-03-23T04:04:33;11.80;99.90
39525;DHT22;25203;50.754;6.978;2023-03-23T04:06:34;11.80;99.90
39525;DHT22;25203;50.754;6.978;2023-03-23T04:08:38;11.80;99.90
39525;DHT22;25203;50.754;6.978;2023-03-23T04:10:41;11.80;99.90
39525;DHT22;25203;50.754;6.978;2023-03-23T04:12:42;11.80;99.90
39525;DHT22;25203;50.754;6.978;2023-03-23T04:14:42;11.70;99.90
39525;DHT22;25203;50.754;6.978;2023-03-23T04:16:43;11.70;99.90
39525;DHT22;25203;50.754;6.978;2023-03-23T04:18:43;11.80;99.90
39525;DHT22;25203;50.754;6.978;2023-03-23T04:20:45;11.80;99.90
39525;DHT22;25203;50.754;6.978;2023-03-23T04:22:50;11.80;99.90
39525;DHT22;25203;50.754;6.978;2023-03-23T04:24:52;11.80;99.90
39525;DHT22;25203;50.754;6.978;2023-03-23T04:26:52;11.80;99.90
39525;DHT22;25203;50.754;6.978;2023-03-23T04:28:55;11.70;99.90
39525;DHT22;25203;50.754;6.978;2023-03-23T04:30:56;11.80;99.90
39525;DHT22;25203;50.754;6.978;2023-03-23T04:32:57;11.80;99.90
39525;DHT22;25203;50.754;6.978;2023-03-23T04:35:00;11.70;99.90
39525;DHT22;25203;50.754;6.978;2023-03-23T04:37:01;11.70;99.90
39525;DHT22;25203;50.754;6.978;2023-03-23T04:39:02;11.70;99.90
39525;DHT22;25203;50.754;6.978;2023-03-23T04:41:03;11.60;99.90
39525;DHT22;25203;50.754;6.978;2023-03-23T04:43:04;11.60;99.90
39525;DHT22;25203;50.754;6.978;2023-03-23T04:45:07;11.60;99.90
39525;DHT22;25203;50.754;6.978;2023-03-23T04:47:08;11.60;99.90
39525;DHT22;25203;50.754;6.978;2023-03-23T04:49:09;11.60;99.90
39525;DHT22;25203;50.754;6.978;2023-03-23T04:51:10;11.50;99.90
39525;DHT22;25203;50.754;6.978;2023-03-23T04:53:12;11.50;99.90
39525;DHT22;25203;50.754;6.978;2023-03-23T04:55:14;11.50;99.90
39525;DHT22;25203;50.754;6.978;2023-03-23T04:57:14;11.50;99.90
39525;DHT22;25203;50.754;6.978;2023-03-23T04:59:15;11.50;99.90
39525;DHT22;25203;50.754;6.978;2023-03-23T05:01:16;11.50;99.90
39525;DHT22;25203;50.754;6.978;2023-03-23T05:03:18;11.50;99.90
39525;DHT22;25203;50.754;6.978;2023-03-23T05:05:20;11.50;99.90
39525;DHT22;25203;50.754;6.978;2023-03-23T05:07:21;11.50;99.90
39525;DHT22;25203;50.754;6.978;2023-03-23T05:09:21;11.40;99.90
39525;DHT22;25203;50.754;6.978;2023-03-23T05:11:22;11.40;99.90
39525;DHT22;25203;50.754;6.978;2023-03-23T05:13:23;11.40;99.90
39525;DHT22;25203;50.754;6.978;2023-03-23T05:15:24;11.30;99.90
39525;DHT22;25203;50.754;6.978;2023-03-23T05:17:25;11.30;99.90
39525;DHT22;25203;50.754;6.978;2023-03-23T05:19:26;11.40;99.90
39525;DHT22;25203;50.754;6.978;2023-03-23T05:21:28;11.40;99.90
39525;DHT22;25203;50.754;6.978;2023-03-23T05:23:29;11.40;99.90
39525;DHT22;25203;50.754;6.978;2023-03-23T05:25:31;11.40;99.90
39525;DHT22;25203;50.754;6.978;2023-03-23T05:27:37;11.40;99.90
39525;DHT22;25203;50.754;6.978;2023-03-23T05:29:38;11.30;99.90
39525;DHT22;25203;50.754;6.978;2023-03-23T05:31:41;11.30;99.90
39525;DHT22;25203;50.754;6.978;2023-03-23T05:33:46;11.40;99.90
39525;DHT22;25203;50.754;6.978;2023-03-23T05:35:47;11.50;99.90
39525;DHT22;25203;50.754;6.978;2023-03-23T05:37:48;11.50;99.90
39525;DHT22;25203;50.754;6.978;2023-03-23T05:39:49;11.50;99.90
39525;DHT22;25203;50.754;6.978;2023-03-23T05:41:55;11.60;99.90
39525;DHT22;25203;50.754;6.978;2023-03-23T05:43:55;11.70;99.90
39525;DHT22;25203;50.754;6.978;2023-03-23T05:45:56;11.80;99.90
39525;DHT22;25203;50.754;6.978;2023-03-23T05:47:57;11.80;99.90
39525;DHT22;25203;50.754;6.978;2023-03-23T05:49:57;11.80;99.90
39525;DHT22;25203;50.754;6.978;2023-03-23T05:51:59;12.00;99.90
39525;DHT22;25203;50.754;6.978;2023-03-23T05:53:59;12.00;99.90
39525;DHT22;25203;50.754;6.978;2023-03-23T05:56:01;12.00;99.90
39525;DHT22;25203;50.754;6.978;2023-03-23T05:58:02;12.00;99.90
39525;DHT22;25203;50.754;6.978;2023-03-23T06:00:04;12.10;99.90
39525;DHT22;25203;50.754;6.978;2023-03-23T06:02:12;12.20;99.90
39525;DHT22;25203;50.754;6.978;2023-03-23T06:04:14;12.10;99.90
39525;DHT22;25203;50.754;6.978;2023-03-23T06:06:14;12.10;99.90
39525;DHT22;25203;50.754;6.978;2023-03-23T06:08:15;12.20;99.90
39525;DHT22;25203;50.754;6.978;2023-03-23T06:10:16;12.20;99.90
39525;DHT22;25203;50.754;6.978;2023-03-23T06:12:16;12.30;99.90
39525;DHT22;25203;50.754;6.978;2023-03-23T06:14:20;12.30;99.90
39525;DHT22;25203;50.754;6.978;2023-03-23T06:16:21;12.30;99.90
39525;DHT22;25203;50.754;6.978;2023-03-23T06:18:22;12.40;99.90
39525;DHT22;25203;50.754;6.978;2023-03-23T06:20:23;12.40;99.90
39525;DHT22;25203;50.754;6.978;2023-03-23T06:22:25;12.30;99.90
39525;DHT22;25203;50.754;6.978;2023-03-23T06:24:26;12.40;99.90
39525;DHT22;25203;50.754;6.978;2023-03-23T06:26:32;12.40;99.90
39525;DHT22;25203;50.754;6.978;2023-03-23T06:28:34;12.30;99.90
39525;DHT22;25203;50.754;6.978;2023-03-23T06:30:36;12.40;99.90
39525;DHT22;25203;50.754;6.978;2023-03-23T06:32:38;12.40;99.90
39525;DHT22;25203;50.754;6.978;2023-03-23T06:34:39;12.40;99.90
39525;DHT22;25203;50.754;6.978;2023-03-23T06:36:43;12.40;99.90
39525;DHT22;25203;50.754;6.978;2023-03-23T06:38:45;12.50;99.90
39525;DHT22;25203;50.754;6.978;2023-03-23T06:40:45;12.60;99.90
39525;DHT22;25203;50.754;6.978;2023-03-23T06:42:47;12.60;99.90
39525;DHT22;25203;50.754;6.978;2023-03-23T06:44:47;12.70;99.90
39525;DHT22;25203;50.754;6.978;2023-03-23T06:46:48;12.70;99.90
39525;DHT22;25203;50.754;6.978;2023-03-23T06:48:49;12.60;99.90
39525;DHT22;25203;50.754;6.978;2023-03-23T06:50:50;12.70;99.90
39525;DHT22;25203;50.754;6.978;2023-03-23T06:52:51;12.70;99.90
39525;DHT22;25203;50.754;6.978;2023-03-23T06:54:52;12.70;99.90
39525;DHT22;25203;50.754;6.978;2023-03-23T06:56:53;12.70;99.90
39525;DHT22;25203;50.754;6.978;2023-03-23T06:58:54;12.70;99.90
39525;DHT22;25203;50.754;6.978;2023-03-23T07:00:55;12.70;99.90
39525;DHT22;25203;50.754;6.978;2023-03-23T07:03:00;12.70;99.90
39525;DHT22;25203;50.754;6.978;2023-03-23T07:05:01;12.80;99.90
39525;DHT22;25203;50.754;6.978;2023-03-23T07:07:05;12.80;99.90
39525;DHT22;25203;50.754;6.978;2023-03-23T07:09:06;12.80;99.90
39525;DHT22;25203;50.754;6.978;2023-03-23T07:11:07;12.80;99.90
39525;DHT22;25203;50.754;6.978;2023-03-23T07:13:08;12.80;99.90
39525;DHT22;25203;50.754;6.978;2023-03-23T07:15:09;12.90;99.90
39525;DHT22;25203;50.754;6.978;2023-03-23T07:17:11;12.90;99.90
39525;DHT22;25203;50.754;6.978;2023-03-23T07:19:12;13.00;99.90
39525;DHT22;25203;50.754;6.978;2023-03-23T07:21:12;13.00;99.90
39525;DHT22;25203;50.754;6.978;2023-03-23T07:23:13;13.00;99.90
39525;DHT22;25203;50.754;6.978;2023-03-23T07:25:13;13.10;99.90
39525;DHT22;25203;50.754;6.978;2023-03-23T07:27:14;13.10;99.90
39525;DHT22;25203;50.754;6.978;2023-03-23T07:29:15;13.10;99.90
39525;DHT22;25203;50.754;6.978;2023-03-23T07:31:16;13.10;99.90
39525;DHT22;25203;50.754;6.978;2023-03-23T07:33:17;13.20;99.90
39525;DHT22;25203;50.754;6.978;2023-03-23T07:35:17;13.20;99.90
39525;DHT22;25203;50.754;6.978;2023-03-23T07:37:18;13.30;99.90
39525;DHT22;25203;50.754;6.978;2023-03-23T07:39:18;13.30;99.90
39525;DHT22;25203;50.754;6.978;2023-03-23T07:41:19;13.30;99.90
39525;DHT22;25203;50.754;6.978;2023-03-23T07:43:20;13.30;99.90
39525;DHT22;25203;50.754;6.978;2023-03-23T07:45:21;13.40;99.90
39525;DHT22;25203;50.754;6.978;2023-03-23T07:47:22;13.30;99.90
39525;DHT22;25203;50.754;6.978;2023-03-23T07:49:22;13.40;99.90
39525;DHT22;25203;50.754;6.978;2023-03-23T07:51:23;13.40;99.90
39525;DHT22;25203;50.754;6.978;2023-03-23T07:53:25;13.50;99.90
39525;DHT22;25203;50.754;6.978;2023-03-23T07:55:25;13.50;99.90
39525;DHT22;25203;50.754;6.978;2023-03-23T07:57:28;13.50;99.90
39525;DHT22;25203;50.754;6.978;2023-03-23T07:59:29;13.50;99.90
39525;DHT22;25203;50.754;6.978;2023-03-23T08:01:31;13.50;99.90
39525;DHT22;25203;50.754;6.978;2023-03-23T08:03:32;13.50;99.90
39525;DHT22;25203;50.754;6.978;2023-03-23T08:05:33;13.60;99.90
39525;DHT22;25203;50.754;6.978;2023-03-23T08:07:34;13.60;99.90
39525;DHT22;25203;50.754;6.978;2023-03-23T08:09:35;13.60;99.90
39525;DHT22;25203;50.754;6.978;2023-03-23T08:11:36;13.60;99.90
39525;DHT22;25203;50.754;6.978;2023-03-23T08:13:37;13.60;99.90
39525;DHT22;25203;50.754;6.978;2023-03-23T08:15:38;13.70;99.90
39525;DHT22;25203;50.754;6.978;2023-03-23T08:17:40;13.70;99.90
39525;DHT22;25203;50.754;6.978;2023-03-23T08:19:41;13.70;99.90
39525;DHT22;25203;50.754;6.978;2023-03-23T08:21:43;13.70;99.90
39525;DHT22;25203;50.754;6.978;2023-03-23T08:23:44;13.70;99.90
39525;DHT22;25203;50.754;6.978;2023-03-23T08:25:45;13.70;99.90
39525;DHT22;25203;50.754;6.978;2023-03-23T08:27:46;13.70;99.90
39525;DHT22;25203;50.754;6.978;2023-03-23T08:29:47;13.70;99.90
39525;DHT22;25203;50.754;6.978;2023-03-23T08:31:48;13.60;99.90
39525;DHT22;25203;50.754;6.978;2023-03-23T08:33:49;13.70;99.90
39525;DHT22;25203;50.754;6.978;2023-03-23T08:35:57;13.70;99.90
39525;DHT22;25203;50.754;6.978;2023-03-23T08:37:58;13.70;99.90
39525;DHT22;25203;50.754;6.978;2023-03-23T08:39:59;13.70;99.90
39525;DHT22;25203;50.754;6.978;2023-03-23T08:42:00;13.70;99.90
39525;DHT22;25203;50.754;6.978;2023-03-23T08:44:01;13.80;99.90
39525;DHT22;25203;50.754;6.978;2023-03-23T08:46:02;13.70;99.90
39525;DHT22;25203;50.754;6.978;2023-03-23T08:48:07;13.80;99.90
39525;DHT22;25203;50.754;6.978;2023-03-23T08:50:10;13.70;99.90
39525;DHT22;25203;50.754;6.978;2023-03-23T08:52:11;13.80;99.90
39525;DHT22;25203;50.754;6.978;2023-03-23T08:54:12;13.90;99.90
39525;DHT22;25203;50.754;6.978;2023-03-23T08:56:12;13.90;99.90
39525;DHT22;25203;50.754;6.978;2023-03-23T08:58:14;13.90;99.90
39525;DHT22;25203;50.754;6.978;2023-03-23T09:00:17;14.00;99.90
39525;DHT22;25203;50.754;6.978;2023-03-23T09:02:18;14.00;99.90
39525;DHT22;25203;50.754;6.978;2023-03-23T09:04:19;14.00;99.90
39525;DHT22;25203;50.754;6.978;2023-03-23T09:06:19;14.00;99.90
39525;DHT22;25203;50.754;6.978;2023-03-23T09:08:20;14.00;99.90
39525;DHT22;25203;50.754;6.978;2023-03-23T09:10:21;14.00;99.90
39525;DHT22;25203;50.754;6.978;2023-03-23T09:12:23;14.10;99.90
39525;DHT22;25203;50.754;6.978;2023-03-23T09:14:24;14.10;99.90
39525;DHT22;25203;50.754;6.978;2023-03-23T09:16:24;14.10;99.90
39525;DHT22;25203;50.754;6.978;2023-03-23T09:18:25;14.10;99.90
39525;DHT22;25203;50.754;6.978;2023-03-23T09:20:27;14.20;99.90
39525;DHT22;25203;50.754;6.978;2023-03-23T09:22:28;14.20;99.90
39525;DHT22;25203;50.754;6.978;2023-03-23T09:24:30;14.20;99.90
39525;DHT22;25203;50.754;6.978;2023-03-23T09:26:31;14.10;99.90
39525;DHT22;25203;50.754;6.978;2023-03-23T09:28:32;14.10;99.90
39525;DHT22;25203;50.754;6.978;2023-03-23T09:30:34;14.10;99.90
39525;DHT22;25203;50.754;6.978;2023-03-23T09:32:38;14.20;99.90
39525;DHT22;25203;50.754;6.978;2023-03-23T09:34:38;14.10;99.90
39525;DHT22;25203;50.754;6.978;2023-03-23T09:36:39;14.10;99.90
39525;DHT22;25203;50.754;6.978;2023-03-23T09:38:40;14.20;99.90
39525;DHT22;25203;50.754;6.978;2023-03-23T09:40:58;14.20;99.90
39525;DHT22;25203;50.754;6.978;2023-03-23T09:43:33;14.20;99.90
39525;DHT22;25203;50.754;6.978;2023-03-23T09:48:27;14.50;99.90
39525;DHT22;25203;50.754;6.978;2023-03-23T09:50:29;14.80;99.90
39525;DHT22;25203;50.754;6.978;2023-03-23T09:52:51;14.80;99.90
39525;DHT22;25203;50.754;6.978;2023-03-23T09:54:55;14.60;99.90
39525;DHT22;25203;50.754;6.978;2023-03-23T09:56:58;14.60;99.90
39525;DHT22;25203;50.754;6.978;2023-03-23T09:59:14;14.50;99.90
39525;DHT22;25203;50.754;6.978;2023-03-23T10:01:46;14.50;99.90
39525;DHT22;25203;50.754;6.978;2023-03-23T10:03:48;14.40;99.90
39525;DHT22;25203;50.754;6.978;2023-03-23T10:05:52;14.40;99.90
39525;DHT22;25203;50.754;6.978;2023-03-23T10:07:54;14.30;99.90
39525;DHT22;25203;50.754;6.978;2023-03-23T10:10:00;14.30;99.90
39525;DHT22;25203;50.754;6.978;2023-03-23T10:12:17;14.30;99.90
39525;DHT22;25203;50.754;6.978;2023-03-23T10:14:43;14.40;99.90
39525;DHT22;25203;50.754;6.978;2023-03-23T10:16:56;14.50;99.90
39525;DHT22;25203;50.754;6.978;2023-03-23T10:21:13;14.60;99.90
39525;DHT22;25203;50.754;6.978;2023-03-23T10:25:41;14.50;99.90
39525;DHT22;25203;50.754;6.978;2023-03-23T10:28:10;14.40;99.90
39525;DHT22;25203;50.754;6.978;2023-03-23T10:35:02;14.10;99.90
39525;DHT22;25203;50.754;6.978;2023-03-23T10:39:24;13.90;99.90
39525;DHT22;25203;50.754;6.978;2023-03-23T10:41:26;13.80;99.90
39525;DHT22;25203;50.754;6.978;2023-03-23T10:43:29;13.80;99.90
39525;DHT22;25203;50.754;6.978;2023-03-23T10:45:30;13.80;99.90
39525;DHT22;25203;50.754;6.978;2023-03-23T10:47:38;13.70;99.90
39525;DHT22;25203;50.754;6.978;2023-03-23T10:49:48;13.80;99.90
39525;DHT22;25203;50.754;6.978;2023-03-23T10:54:36;14.10;99.90
39525;DHT22;25203;50.754;6.978;2023-03-23T10:56:40;14.30;99.90
39525;DHT22;25203;50.754;6.978;2023-03-23T10:58:41;14.40;99.90
39525;DHT22;25203;50.754;6.978;2023-03-23T11:00:46;14.50;99.90
39525;DHT22;25203;50.754;6.978;2023-03-23T11:05:21;14.70;99.90
39525;DHT22;25203;50.754;6.978;2023-03-23T11:07:28;14.60;99.90
39525;DHT22;25203;50.754;6.978;2023-03-23T11:09:50;14.50;99.90
39525;DHT22;25203;50.754;6.978;2023-03-23T11:11:54;14.50;99.90
39525;DHT22;25203;50.754;6.978;2023-03-23T11:13:59;14.70;99.90
39525;DHT22;25203;50.754;6.978;2023-03-23T11:16:01;14.80;99.90
39525;DHT22;25203;50.754;6.978;2023-03-23T11:18:05;14.70;99.90
39525;DHT22;25203;50.754;6.978;2023-03-23T11:20:11;14.70;99.90
39525;DHT22;25203;50.754;6.978;2023-03-23T11:22:26;14.70;99.90
39525;DHT22;25203;50.754;6.978;2023-03-23T11:24:26;14.70;99.90
39525;DHT22;25203;50.754;6.978;2023-03-23T11:26:33;14.70;99.90
39525;DHT22;25203;50.754;6.978;2023-03-23T11:28:38;14.60;99.90
39525;DHT22;25203;50.754;6.978;2023-03-23T11:30:42;14.60;99.90
39525;DHT22;25203;50.754;6.978;2023-03-23T11:32:44;14.70;99.90
39525;DHT22;25203;50.754;6.978;2023-03-23T11:34:53;15.00;99.90
39525;DHT22;25203;50.754;6.978;2023-03-23T11:37:00;15.40;99.90
39525;DHT22;25203;50.754;6.978;2023-03-23T11:39:03;15.50;99.90
39525;DHT22;25203;50.754;6.978;2023-03-23T11:41:19;15.50;99.90
39525;DHT22;25203;50.754;6.978;2023-03-23T11:43:24;15.70;99.90
39525;DHT22;25203;50.754;6.978;2023-03-23T11:45:37;16.10;99.90
39525;DHT22;25203;50.754;6.978;2023-03-23T11:52:05;16.20;99.90
39525;DHT22;25203;50.754;6.978;2023-03-23T11:54:28;15.90;99.90
39525;DHT22;25203;50.754;6.978;2023-03-23T11:56:35;15.70;99.90
39525;DHT22;25203;50.754;6.978;2023-03-23T11:58:36;15.30;99.90
39525;DHT22;25203;50.754;6.978;2023-03-23T12:05:48;15.30;99.90
39525;DHT22;25203;50.754;6.978;2023-03-23T12:24:46;15.70;99.90
39525;DHT22;25203;50.754;6.978;2023-03-23T12:27:10;15.60;99.90
39525;DHT22;25203;50.754;6.978;2023-03-23T12:34:28;15.60;99.90
39525;DHT22;25203;50.754;6.978;2023-03-23T12:45:50;15.40;99.90
39525;DHT22;25203;50.754;6.978;2023-03-23T12:47:56;15.30;99.90
39525;DHT22;25203;50.754;6.978;2023-03-23T12:52:35;15.20;99.90
39525;DHT22;25203;50.754;6.978;2023-03-23T12:54:47;15.30;99.90
39525;DHT22;25203;50.754;6.978;2023-03-23T13:01:39;15.20;99.90
39525;DHT22;25203;50.754;6.978;2023-03-23T13:05:46;15.30;99.90
39525;DHT22;25203;50.754;6.978;2023-03-23T13:08:02;15.20;99.90
39525;DHT22;25203;50.754;6.978;2023-03-23T13:10:12;15.30;99.90
39525;DHT22;25203;50.754;6.978;2023-03-23T13:12:16;15.50;99.90
39525;DHT22;25203;50.754;6.978;2023-03-23T13:19:07;15.60;99.90
39525;DHT22;25203;50.754;6.978;2023-03-23T13:23:20;15.30;99.90
39525;DHT22;25203;50.754;6.978;2023-03-23T13:28:00;15.50;99.90
39525;DHT22;25203;50.754;6.978;2023-03-23T13:30:02;15.60;99.90
39525;DHT22;25203;50.754;6.978;2023-03-23T13:32:12;15.50;99.90
39525;DHT22;25203;50.754;6.978;2023-03-23T13:34:19;15.40;99.90
39525;DHT22;25203;50.754;6.978;2023-03-23T13:38:33;15.40;99.90
39525;DHT22;25203;50.754;6.978;2023-03-23T13:40:34;15.50;99.90
39525;DHT22;25203;50.754;6.978;2023-03-23T13:42:35;15.60;99.90
39525;DHT22;25203;50.754;6.978;2023-03-23T13:49:22;15.60;99.90
39525;DHT22;25203;50.754;6.978;2023-03-23T13:53:47;15.60;99.90
39525;DHT22;25203;50.754;6.978;2023-03-23T13:55:51;15.70;99.90
39525;DHT22;25203;50.754;6.978;2023-03-23T13:57:54;15.80;99.90
39525;DHT22;25203;50.754;6.978;2023-03-23T13:59:58;16.10;99.90
39525;DHT22;25203;50.754;6.978;2023-03-23T14:04:37;16.00;99.90
39525;DHT22;25203;50.754;6.978;2023-03-23T14:06:38;15.70;99.90
39525;DHT22;25203;50.754;6.978;2023-03-23T14:08:44;15.90;99.90
39525;DHT22;25203;50.754;6.978;2023-03-23T14:10:55;16.10;99.90
39525;DHT22;25203;50.754;6.978;2023-03-23T14:12:59;15.90;99.70
39525;DHT22;25203;50.754;6.978;2023-03-23T14:15:02;15.60;99.90
39525;DHT22;25203;50.754;6.978;2023-03-23T14:19:24;15.40;99.90
39525;DHT22;25203;50.754;6.978;2023-03-23T14:21:35;15.40;99.90
39525;DHT22;25203;50.754;6.978;2023-03-23T14:23:36;15.40;99.90
39525;DHT22;25203;50.754;6.978;2023-03-23T14:25:37;15.50;99.90
39525;DHT22;25203;50.754;6.978;2023-03-23T14:27:37;15.50;99.90
39525;DHT22;25203;50.754;6.978;2023-03-23T14:29:38;15.40;99.90
39525;DHT22;25203;50.754;6.978;2023-03-23T14:31:40;15.40;99.90
39525;DHT22;25203;50.754;6.978;2023-03-23T14:33:41;15.40;99.90
39525;DHT22;25203;50.754;6.978;2023-03-23T14:35:43;15.50;99.90
39525;DHT22;25203;50.754;6.978;2023-03-23T14:37:44;15.50;99.90
39525;DHT22;25203;50.754;6.978;2023-03-23T14:39:47;15.50;99.90
39525;DHT22;25203;50.754;6.978;2023-03-23T14:41:49;15.50;99.90
39525;DHT22;25203;50.754;6.978;2023-03-23T14:43:51;15.50;99.90
39525;DHT22;25203;50.754;6.978;2023-03-23T14:45:54;15.50;99.90
39525;DHT22;25203;50.754;6.978;2023-03-23T14:47:58;15.50;99.90
39525;DHT22;25203;50.754;6.978;2023-03-23T14:50:01;15.50;99.90
39525;DHT22;25203;50.754;6.978;2023-03-23T14:52:12;15.60;99.90
39525;DHT22;25203;50.754;6.978;2023-03-23T14:54:13;15.60;99.90
39525;DHT22;25203;50.754;6.978;2023-03-23T14:56:16;15.70;99.90
39525;DHT22;25203;50.754;6.978;2023-03-23T14:58:21;15.60;99.90
39525;DHT22;25203;50.754;6.978;2023-03-23T15:00:33;15.60;99.70
39525;DHT22;25203;50.754;6.978;2023-03-23T15:02:37;15.60;99.60
39525;DHT22;25203;50.754;6.978;2023-03-23T15:04:39;15.70;99.90
39525;DHT22;25203;50.754;6.978;2023-03-23T15:06:43;15.80;99.70
39525;DHT22;25203;50.754;6.978;2023-03-23T15:08:45;15.90;99.90